createdAt,value
2019-03-16T00:00:30.940Z,97651.20
2019-03-16T00:03:02.936Z,97651.55
2019-03-16T00:05:36.966Z,97651.55
2019-03-16T00:08:08.996Z,97661.67
2019-03-16T00:10:41.004Z,97665.73
2019-03-16T00:13:15.994Z,97666.47
2019-03-16T00:15:46.879Z,97671.48
2019-03-16T00:18:18.885Z,97669.16
2019-03-16T00:20:50.917Z,97679.71
2019-03-16T00:23:22.898Z,97679.54
2019-03-16T00:25:54.880Z,97675.38
2019-03-16T00:28:26.923Z,97681.22
2019-03-16T00:30:58.871Z,97659.82
2019-03-16T00:33:30.858Z,97674.03
2019-03-16T00:36:02.845Z,97679.72
2019-03-16T00:38:34.874Z,97678.44
2019-03-16T00:41:06.860Z,97682.33
2019-03-16T00:43:38.904Z,97686.50
2019-03-16T00:46:10.889Z,97673.73
2019-03-16T00:48:42.890Z,97673.73
2019-03-16T00:51:14.902Z,97685.22
2019-03-16T00:53:46.978Z,97676.82
2019-03-16T00:56:18.992Z,97677.63
2019-03-16T00:58:50.982Z,97678.06
2019-03-16T01:01:22.966Z,97675.31
2019-03-16T01:03:55.004Z,97692.78
2019-03-16T01:06:27.018Z,97692.78
2019-03-16T01:08:59.085Z,97683.24
2019-03-16T01:11:31.077Z,97689.69
2019-03-16T01:14:03.074Z,97686.88
2019-03-16T01:16:35.104Z,97689.93
2019-03-16T01:19:07.097Z,97686.77
2019-03-16T01:21:39.136Z,97681.46
2019-03-16T01:24:11.110Z,97685.36
2019-03-16T01:26:43.086Z,97686.03
2019-03-16T01:29:15.026Z,97694.09
2019-03-16T01:31:47.028Z,97688.28
2019-03-16T01:34:19.019Z,97691.20
2019-03-16T01:36:51.026Z,97677.97
2019-03-16T01:39:22.992Z,97684.98
2019-03-16T01:41:54.990Z,97681.39
2019-03-16T01:44:28.241Z,97686.64
2019-03-16T01:47:00.256Z,97686.60
2019-03-16T01:49:32.313Z,97691.84
2019-03-16T01:52:04.434Z,97688.82
2019-03-16T01:54:38.790Z,97700.84
2019-03-16T01:57:10.811Z,97698.25
2019-03-16T01:59:42.830Z,97698.13
2019-03-16T02:02:14.798Z,97701.28
2019-03-16T02:04:46.765Z,97701.05
2019-03-16T02:07:18.756Z,97706.34
2019-03-16T02:09:50.710Z,97706.34
2019-03-16T02:12:22.692Z,97707.42
2019-03-16T02:14:54.657Z,97710.49
2019-03-16T02:17:26.645Z,97707.09
2019-03-16T02:19:58.609Z,97707.09
2019-03-16T02:22:30.658Z,97708.37
2019-03-16T02:25:02.668Z,97707.42
2019-03-16T02:27:34.667Z,97701.21
2019-03-16T02:30:07.072Z,97687.47
2019-03-16T02:32:39.091Z,97687.47
2019-03-16T02:35:11.004Z,97694.33
2019-03-16T02:37:43.011Z,97681.52
2019-03-16T02:40:14.974Z,97683.34
2019-03-16T02:42:46.965Z,97683.50
2019-03-16T02:45:18.949Z,97689.19
2019-03-16T02:47:50.932Z,97689.19
2019-03-16T02:50:22.886Z,97685.92
2019-03-16T02:52:54.874Z,97691.96
2019-03-16T02:55:26.848Z,97694.79
2019-03-16T02:57:58.828Z,97697.23
2019-03-16T03:00:30.782Z,97684.13
2019-03-16T03:03:02.765Z,97698.22
2019-03-16T03:05:37.093Z,97698.52
2019-03-16T03:08:09.046Z,97698.52
2019-03-16T03:10:41.076Z,97689.64
2019-03-16T03:13:13.942Z,97692.13
2019-03-16T03:15:46.202Z,97688.83
2019-03-16T03:18:18.133Z,97693.19
2019-03-16T03:20:50.243Z,97700.55
2019-03-16T03:23:22.217Z,97705.30
2019-03-16T03:25:54.179Z,97708.48
2019-03-16T03:28:26.117Z,97704.89
2019-03-16T03:30:58.109Z,97709.61
2019-03-16T03:33:56.125Z,97709.61
2019-03-16T03:36:03.992Z,97705.88
2019-03-16T03:38:35.958Z,97709.48
2019-03-16T03:41:07.905Z,97709.48
2019-03-16T03:43:39.844Z,97714.81
2019-03-16T03:46:11.838Z,97717.66
2019-03-16T03:48:43.766Z,97718.70
2019-03-16T03:51:15.756Z,97725.55
2019-03-16T03:53:47.713Z,97725.55
2019-03-16T03:56:19.706Z,97711.28
2019-03-16T03:58:51.677Z,97719.52
2019-03-16T04:01:23.672Z,97713.31
2019-03-16T04:04:13.634Z,97713.31
2019-03-16T04:06:29.485Z,97722.55
2019-03-16T04:09:01.526Z,97720.79
2019-03-16T04:11:33.509Z,97722.23
2019-03-16T04:14:05.501Z,97718.53
2019-03-16T04:16:37.499Z,97716.44
2019-03-16T04:19:09.471Z,97721.50
2019-03-16T04:21:41.530Z,97721.84
2019-03-16T04:24:13.434Z,97724.97
2019-03-16T04:26:45.470Z,97733.95
2019-03-16T04:29:17.415Z,97732.23
2019-03-16T04:31:49.463Z,97734.48
2019-03-16T04:34:29.285Z,97734.19
2019-03-16T04:36:55.342Z,97730.41
2019-03-16T04:39:27.335Z,97735.94
2019-03-16T04:41:59.271Z,97733.25
2019-03-16T04:44:31.246Z,97728.75
2019-03-16T04:47:03.199Z,97728.75
2019-03-16T04:49:35.158Z,97729.03
2019-03-16T04:52:07.108Z,97727.13
2019-03-16T04:54:39.176Z,97725.67
2019-03-16T04:57:11.126Z,97722.42
2019-03-16T04:59:43.110Z,97733.33
2019-03-16T05:02:15.119Z,97732.86
2019-03-16T05:04:47.069Z,97734.38
2019-03-16T05:07:19.023Z,97728.73
2019-03-16T05:09:50.992Z,97735.83
2019-03-16T05:12:22.939Z,97735.83
2019-03-16T05:14:54.909Z,97731.94
2019-03-16T05:17:26.858Z,97730.94
2019-03-16T05:19:58.848Z,97727.47
2019-03-16T05:22:30.813Z,97734.02
2019-03-16T05:25:02.991Z,97734.02
2019-03-16T05:27:34.977Z,97725.95
2019-03-16T05:30:08.170Z,97725.95
2019-03-16T05:32:40.127Z,97729.85
2019-03-16T05:35:12.099Z,97736.55
2019-03-16T05:37:44.071Z,97721.89
2019-03-16T05:40:16.027Z,97738.06
2019-03-16T05:42:47.998Z,97734.83
2019-03-16T05:45:20.016Z,97743.34
2019-03-16T05:47:51.979Z,97739.13
2019-03-16T05:50:23.965Z,97739.13
2019-03-16T05:52:55.911Z,97741.66
2019-03-16T05:55:27.922Z,97742.84
2019-03-16T05:57:59.887Z,97750.42
2019-03-16T06:00:31.887Z,97753.09
2019-03-16T06:03:05.002Z,97753.28
2019-03-16T06:05:36.997Z,97759.94
2019-03-16T06:08:08.938Z,97761.56
2019-03-16T06:10:40.922Z,97761.20
2019-03-16T06:13:12.917Z,97760.76
2019-03-16T06:15:44.898Z,97764.12
2019-03-16T06:18:16.903Z,97770.91
2019-03-16T06:20:51.179Z,97769.64
2019-03-16T06:23:24.240Z,97774.67
2019-03-16T06:25:56.206Z,97775.10
2019-03-16T06:28:28.194Z,97768.30
2019-03-16T06:31:00.128Z,97773.35
2019-03-16T06:33:32.109Z,97774.58
2019-03-16T06:36:04.071Z,97777.23
2019-03-16T06:38:36.095Z,97783.69
2019-03-16T06:41:08.057Z,97789.20
2019-03-16T06:43:40.024Z,97795.69
2019-03-16T06:46:11.994Z,97795.75
2019-03-16T06:48:43.982Z,97798.71
2019-03-16T06:51:15.922Z,97802.07
2019-03-16T06:53:47.890Z,97803.34
2019-03-16T06:56:19.860Z,97807.52
2019-03-16T07:01:50.944Z,97809.96
2019-03-16T07:04:22.920Z,97820.82
2019-03-16T07:06:54.879Z,97821.34
2019-03-16T07:09:26.919Z,97826.86
2019-03-16T07:11:58.911Z,97824.59
2019-03-16T07:14:30.887Z,97827.20
2019-03-16T07:17:02.867Z,97826.11
2019-03-16T07:19:37.623Z,97833.77
2019-03-16T07:25:22.583Z,97832.37
2019-03-16T07:27:54.642Z,97842.32
2019-03-16T07:30:26.650Z,97840.69
2019-03-16T07:32:58.612Z,97833.45
2019-03-16T07:35:30.652Z,97844.89
2019-03-16T07:38:02.618Z,97824.95
2019-03-16T07:40:34.928Z,97844.36
2019-03-16T07:43:06.979Z,97853.48
2019-03-16T07:45:38.965Z,97848.55
2019-03-16T07:48:10.964Z,97852.54
2019-03-16T07:50:42.995Z,97859.66
2019-03-16T07:53:14.999Z,97860.45
2019-03-16T07:55:46.971Z,97858.37
2019-03-16T07:58:18.926Z,97858.64
2019-03-16T08:00:50.926Z,97851.60
2019-03-16T08:03:22.938Z,97850.85
2019-03-16T08:05:54.936Z,97854.86
2019-03-16T08:08:29.757Z,97850.53
2019-03-16T08:11:01.777Z,97856.61
2019-03-16T08:13:33.756Z,97856.37
2019-03-16T08:16:05.948Z,97856.37
2019-03-16T08:18:37.934Z,97859.87
2019-03-16T08:21:09.953Z,97851.50
2019-03-16T08:23:41.931Z,97870.31
2019-03-16T08:26:13.931Z,97864.73
2019-03-16T08:28:45.939Z,97869.56
2019-03-16T08:31:19.167Z,97873.02
2019-03-16T08:33:51.127Z,97874.20
2019-03-16T08:36:25.850Z,97874.90
2019-03-16T08:38:57.819Z,97879.13
2019-03-16T08:41:29.813Z,97876.75
2019-03-16T08:44:01.821Z,97879.66
2019-03-16T08:46:33.834Z,97879.66
2019-03-16T08:49:05.814Z,97886.22
2019-03-16T08:51:37.810Z,97889.23
2019-03-16T08:54:09.842Z,97894.92
2019-03-16T08:56:41.889Z,97882.39
2019-03-16T08:59:13.943Z,97886.05
2019-03-16T09:01:45.912Z,97885.45
2019-03-16T09:04:17.962Z,97883.30
2019-03-16T09:06:52.794Z,97876.72
2019-03-16T09:09:23.871Z,97880.59
2019-03-16T09:11:58.149Z,97875.14
2019-03-16T09:14:29.753Z,97864.88
2019-03-16T09:17:01.723Z,97868.19
2019-03-16T09:19:33.696Z,97873.56
2019-03-16T09:22:05.701Z,97875.01
2019-03-16T09:24:37.730Z,97873.06
2019-03-16T09:27:09.704Z,97864.93
2019-03-16T09:29:41.731Z,97864.75
2019-03-16T09:32:13.715Z,97859.16
2019-03-16T09:34:45.717Z,97866.50
2019-03-16T09:37:17.698Z,97867.95
2019-03-16T09:39:49.723Z,97875.44
2019-03-16T09:42:21.740Z,97878.47
2019-03-16T09:44:53.722Z,97872.12
2019-03-16T09:47:25.688Z,97879.38
2019-03-16T09:49:57.662Z,97873.94
2019-03-16T09:52:29.654Z,97874.70
2019-03-16T09:55:01.696Z,97869.93
2019-03-16T09:57:33.664Z,97864.78
2019-03-16T10:00:07.582Z,97860.64
2019-03-16T10:02:39.545Z,97864.61
2019-03-16T10:05:11.564Z,97873.86
2019-03-16T10:07:43.586Z,97873.27
2019-03-16T10:10:15.587Z,97870.56
2019-03-16T10:12:47.557Z,97874.17
2019-03-16T10:15:19.594Z,97869.90
2019-03-16T10:17:51.578Z,97870.80
2019-03-16T10:20:23.587Z,97876.19
2019-03-16T10:22:55.641Z,97873.80
2019-03-16T10:25:27.605Z,97870.87
2019-03-16T10:27:59.598Z,97869.03
2019-03-16T10:30:31.617Z,97867.62
2019-03-16T10:33:03.742Z,97861.95
2019-03-16T10:35:35.701Z,97867.47
2019-03-16T10:38:07.743Z,97862.52
2019-03-16T10:40:39.711Z,97850.55
2019-03-16T10:43:11.724Z,97848.62
2019-03-16T10:45:43.744Z,97838.23
2019-03-16T10:48:15.750Z,97849.26
2019-03-16T10:50:47.759Z,97845.58
2019-03-16T10:53:19.717Z,97837.68
2019-03-16T10:55:51.708Z,97842.30
2019-03-16T10:58:23.770Z,97843.30
2019-03-16T11:00:55.762Z,97839.47
2019-03-16T11:03:27.732Z,97835.91
2019-03-16T11:06:02.661Z,97835.69
2019-03-16T11:08:34.642Z,97835.50
2019-03-16T11:11:06.631Z,97830.56
2019-03-16T11:13:38.641Z,97819.91
2019-03-16T11:16:10.881Z,97822.22
2019-03-16T11:18:42.914Z,97822.09
2019-03-16T11:21:14.913Z,97817.16
2019-03-16T11:23:46.978Z,97814.73
2019-03-16T11:26:20.019Z,97817.50
2019-03-16T11:28:51.993Z,97805.39
2019-03-16T11:31:23.968Z,97804.31
2019-03-16T11:33:55.992Z,97805.92
2019-03-16T11:36:28.044Z,97806.22
2019-03-16T11:39:00.009Z,97802.77
2019-03-16T11:41:32.029Z,97810.97
2019-03-16T11:44:04.039Z,97802.45
2019-03-16T11:46:36.055Z,97804.39
2019-03-16T11:49:08.027Z,97801.92
2019-03-16T11:51:41.878Z,97806.01
2019-03-16T11:54:13.913Z,97807.44
2019-03-16T11:56:45.942Z,97805.37
2019-03-16T11:59:21.936Z,97797.22
2019-03-16T12:01:51.887Z,97798.22
2019-03-16T12:04:25.062Z,97798.50
2019-03-16T12:06:57.071Z,97799.30
2019-03-16T12:09:31.815Z,97796.20
2019-03-16T12:12:03.792Z,97795.28
2019-03-16T12:14:35.824Z,97793.64
2019-03-16T12:17:07.797Z,97784.30
2019-03-16T12:19:39.852Z,97780.58
2019-03-16T12:22:11.853Z,97787.82
2019-03-16T12:24:43.885Z,97780.16
2019-03-16T12:27:15.868Z,97767.80
2019-03-16T12:29:50.416Z,97770.50
2019-03-16T12:32:22.405Z,97761.75
2019-03-16T12:34:56.829Z,97765.92
2019-03-16T12:37:28.860Z,97756.16
2019-03-16T12:40:02.662Z,97750.06
2019-03-16T12:42:34.672Z,97747.63
2019-03-16T12:45:09.594Z,97729.21
2019-03-16T12:47:41.597Z,97737.42
2019-03-16T12:50:13.698Z,97734.86
2019-03-16T12:52:45.682Z,97728.53
2019-03-16T12:55:17.701Z,97727.41
2019-03-16T12:57:50.932Z,97726.42
2019-03-16T13:00:22.921Z,97724.68
2019-03-16T13:02:55.298Z,97725.50
2019-03-16T13:05:27.271Z,97714.69
2019-03-16T13:07:59.312Z,97722.25
2019-03-16T13:10:31.315Z,97714.64
2019-03-16T13:13:03.308Z,97711.60
2019-03-16T13:15:35.288Z,97699.36
2019-03-16T13:18:07.308Z,97707.26
2019-03-16T13:20:39.316Z,97696.64
2019-03-16T13:23:11.313Z,97701.77
2019-03-16T13:25:43.388Z,97695.61
2019-03-16T13:28:18.084Z,97694.11
2019-03-16T13:30:50.157Z,97691.28
2019-03-16T13:33:22.162Z,97681.47
2019-03-16T13:35:54.149Z,97676.69
2019-03-16T13:38:26.196Z,97684.46
2019-03-16T13:40:58.229Z,97673.95
2019-03-16T13:43:30.292Z,97662.06
2019-03-16T13:46:02.294Z,97660.45
2019-03-16T13:48:34.295Z,97651.05
2019-03-16T13:51:06.310Z,97655.95
2019-03-16T13:53:38.352Z,97648.22
2019-03-16T13:56:12.246Z,97649.12
2019-03-16T13:58:46.142Z,97647.75
2019-03-16T14:01:21.153Z,97635.31
2019-03-16T14:03:53.198Z,97637.33
2019-03-16T14:06:25.210Z,97639.95
2019-03-16T14:08:59.196Z,97631.85
2019-03-16T14:11:31.456Z,97635.83
2019-03-16T14:14:03.705Z,97634.63
2019-03-16T14:16:35.703Z,97628.91
2019-03-16T14:19:08.191Z,97629.73
2019-03-16T14:21:40.455Z,97635.58
2019-03-16T14:24:12.539Z,97636.24
2019-03-16T14:26:45.639Z,97628.00
2019-03-16T14:29:17.682Z,97621.45
2019-03-16T14:31:49.718Z,97634.12
2019-03-16T14:34:24.660Z,97625.13
2019-03-16T14:36:57.462Z,97623.68
2019-03-16T14:39:29.787Z,97614.59
2019-03-16T14:42:02.861Z,97603.85
2019-03-16T14:44:34.871Z,97608.89
2019-03-16T14:47:08.785Z,97600.42
2019-03-16T14:49:41.473Z,97606.44
2019-03-16T14:52:14.008Z,97600.47
2019-03-16T14:54:46.353Z,97607.39
2019-03-16T14:57:18.411Z,97610.52
2019-03-16T14:59:50.542Z,97596.56
2019-03-16T15:02:22.629Z,97594.05
2019-03-16T15:04:54.661Z,97583.95
2019-03-16T15:07:26.644Z,97580.66
2019-03-16T15:09:58.710Z,97580.62
2019-03-16T15:12:31.081Z,97578.97
2019-03-16T15:15:03.833Z,97579.56
2019-03-16T15:17:38.089Z,97575.48
2019-03-16T15:20:10.256Z,97571.73
2019-03-16T15:22:42.388Z,97562.62
2019-03-16T15:25:14.496Z,97565.42
2019-03-16T15:27:48.419Z,97566.00
2019-03-16T15:30:20.668Z,97563.30
2019-03-16T15:32:52.816Z,97562.60
2019-03-16T15:35:24.904Z,97556.63
2019-03-16T15:37:57.296Z,97554.64
2019-03-16T15:40:29.267Z,97555.33
2019-03-16T15:43:01.380Z,97554.71
2019-03-16T15:45:33.380Z,97551.20
2019-03-16T15:48:05.470Z,97549.77
2019-03-16T15:50:37.575Z,97547.92
2019-03-16T15:53:09.748Z,97549.88
2019-03-16T15:55:41.789Z,97546.31
2019-03-16T15:58:13.864Z,97547.19
2019-03-16T16:00:46.029Z,97545.20
2019-03-16T16:03:18.327Z,97542.02
2019-03-16T16:05:50.481Z,97535.56
2019-03-16T16:08:22.625Z,97529.73
2019-03-16T16:11:00.864Z,97527.98
2019-03-16T16:13:28.900Z,97530.88
2019-03-16T16:16:01.087Z,97526.91
2019-03-16T16:18:33.285Z,97524.55
2019-03-16T16:21:05.409Z,97518.05
2019-03-16T16:23:37.585Z,97514.20
2019-03-16T16:26:09.767Z,97512.75
2019-03-16T16:28:43.129Z,97510.85
2019-03-16T16:31:16.538Z,97504.44
2019-03-16T16:33:48.943Z,97500.95
2019-03-16T16:36:21.176Z,97504.06
2019-03-16T16:38:53.223Z,97502.52
2019-03-16T16:41:25.762Z,97497.96
2019-03-16T16:43:57.999Z,97495.59
2019-03-16T16:46:30.169Z,97496.01
2019-03-16T16:49:02.330Z,97486.37
2019-03-16T16:51:34.438Z,97487.84
2019-03-16T16:54:08.432Z,97482.05
2019-03-16T16:56:42.334Z,97480.14
2019-03-16T16:59:14.373Z,97479.42
2019-03-16T17:01:46.483Z,97474.77
2019-03-16T17:04:18.652Z,97465.05
2019-03-16T17:06:50.714Z,97468.70
2019-03-16T17:09:22.912Z,97470.26
2019-03-16T17:11:55.025Z,97463.97
2019-03-16T17:14:27.097Z,97463.28
2019-03-16T17:16:59.100Z,97462.87
2019-03-16T17:19:31.214Z,97465.45
2019-03-16T17:22:03.363Z,97459.45
2019-03-16T17:24:35.562Z,97460.29
2019-03-16T17:27:07.593Z,97451.73
2019-03-16T17:29:39.630Z,97446.73
2019-03-16T17:32:11.953Z,97448.11
2019-03-16T17:34:44.034Z,97444.17
2019-03-16T17:37:16.113Z,97434.09
2019-03-16T17:39:50.046Z,97437.55
2019-03-16T17:42:22.165Z,97445.10
2019-03-16T17:44:54.282Z,97447.36
2019-03-16T17:47:26.271Z,97440.47
2019-03-16T17:49:58.336Z,97443.36
2019-03-16T17:52:30.533Z,97441.33
2019-03-16T17:55:02.852Z,97440.84
2019-03-16T17:57:35.064Z,97437.11
2019-03-16T18:00:08.547Z,97436.70
2019-03-16T18:02:50.685Z,97436.77
2019-03-16T18:05:14.596Z,97437.42
2019-03-16T18:07:46.686Z,97434.45
2019-03-16T18:10:18.718Z,97433.02
2019-03-16T18:12:52.058Z,97437.39
2019-03-16T18:15:24.111Z,97435.02
2019-03-16T18:17:56.156Z,97439.44
2019-03-16T18:20:28.426Z,97435.86
2019-03-16T18:23:00.576Z,97442.61
2019-03-16T18:25:32.641Z,97449.94
2019-03-16T18:28:04.823Z,97446.06
2019-03-16T18:30:37.073Z,97446.06
2019-03-16T18:33:09.165Z,97441.26
2019-03-16T18:35:41.231Z,97429.05
2019-03-16T18:38:13.253Z,97429.05
2019-03-16T18:40:45.338Z,97444.05
2019-03-16T18:43:17.453Z,97444.05
2019-03-16T18:45:49.572Z,97442.50
2019-03-16T18:48:21.903Z,97444.83
2019-03-16T18:50:54.229Z,97443.72
2019-03-16T18:53:26.315Z,97439.34
2019-03-16T18:55:58.380Z,97439.48
2019-03-16T18:58:37.076Z,97437.06
2019-03-16T19:01:04.699Z,97436.34
2019-03-16T19:03:36.760Z,97437.45
2019-03-16T19:06:08.810Z,97433.78
2019-03-16T19:08:40.901Z,97427.82
2019-03-16T19:11:14.356Z,97422.77
2019-03-16T19:13:46.379Z,97423.63
2019-03-16T19:16:18.437Z,97422.97
2019-03-16T19:18:50.546Z,97420.43
2019-03-16T19:21:22.785Z,97417.02
2019-03-16T19:23:55.016Z,97425.08
2019-03-16T19:26:29.995Z,97420.31
2019-03-16T19:29:01.477Z,97419.36
2019-03-16T19:31:33.505Z,97429.93
2019-03-16T19:34:05.515Z,97418.77
2019-03-16T19:36:37.589Z,97413.11
2019-03-16T19:39:09.677Z,97414.98
2019-03-16T19:41:41.919Z,97410.19
2019-03-16T19:44:14.022Z,97409.82
2019-03-16T19:46:46.102Z,97399.86
2019-03-16T19:49:18.157Z,97397.31
2019-03-16T19:51:50.227Z,97403.77
2019-03-16T19:54:22.254Z,97401.36
2019-03-16T19:56:54.313Z,97408.20
2019-03-16T19:59:26.361Z,97401.17
2019-03-16T20:01:58.447Z,97390.81
2019-03-16T20:04:35.810Z,97388.56
2019-03-16T20:07:04.492Z,97390.91
2019-03-16T20:09:36.745Z,97392.66
2019-03-16T20:12:08.821Z,97385.43
2019-03-16T20:14:41.041Z,97386.05
2019-03-16T20:17:13.184Z,97382.31
2019-03-16T20:19:45.313Z,97372.73
2019-03-16T20:22:17.393Z,97371.59
2019-03-16T20:24:49.520Z,97371.97
2019-03-16T20:27:21.635Z,97369.83
2019-03-16T20:29:53.730Z,97380.27
2019-03-16T20:32:26.965Z,97382.30
2019-03-16T20:34:59.094Z,97382.53
2019-03-16T20:37:31.329Z,97377.45
2019-03-16T20:40:04.629Z,97384.08
2019-03-16T20:42:36.738Z,97374.48
2019-03-16T20:45:10.773Z,97377.42
2019-03-16T20:47:42.858Z,97378.19
2019-03-16T20:50:14.913Z,97379.53
2019-03-16T20:52:47.125Z,97384.13
2019-03-16T20:55:19.775Z,97383.62
2019-03-16T20:57:51.842Z,97378.81
2019-03-16T21:00:23.945Z,97376.95
2019-03-16T21:02:56.162Z,97376.28
2019-03-16T21:05:28.223Z,97371.66
2019-03-16T21:08:00.205Z,97372.34
2019-03-16T21:10:32.301Z,97372.63
2019-03-16T21:13:05.725Z,97367.62
2019-03-16T21:15:37.870Z,97368.14
2019-03-16T21:18:09.896Z,97363.78
2019-03-16T21:20:42.015Z,97362.03
2019-03-16T21:23:14.074Z,97367.69
2019-03-16T21:25:46.341Z,97365.16
2019-03-16T21:28:20.199Z,97355.16
2019-03-16T21:30:52.254Z,97361.48
2019-03-16T21:33:29.470Z,97359.42
2019-03-16T21:35:58.303Z,97358.16
2019-03-16T21:38:30.448Z,97362.55
2019-03-16T21:41:02.593Z,97359.02
2019-03-16T21:43:34.685Z,97360.02
2019-03-16T21:46:06.736Z,97365.00
2019-03-16T21:48:38.804Z,97355.14
2019-03-16T21:51:12.207Z,97357.73
2019-03-16T21:53:44.342Z,97345.92
2019-03-16T21:56:16.492Z,97349.03
2019-03-16T21:58:48.694Z,97345.17
2019-03-16T22:01:20.731Z,97345.02
2019-03-16T22:03:52.817Z,97346.08
2019-03-16T22:06:25.010Z,97341.47
2019-03-16T22:08:57.096Z,97339.69
2019-03-16T22:11:29.107Z,97339.24
2019-03-16T22:14:01.242Z,97333.45
2019-03-16T22:16:33.291Z,97326.79
2019-03-16T22:19:05.617Z,97321.78
2019-03-16T22:21:37.843Z,97320.97
2019-03-16T22:24:09.796Z,97310.97
2019-03-16T22:26:42.053Z,97313.83
2019-03-16T22:29:14.090Z,97320.37
2019-03-16T22:31:46.147Z,97317.26
2019-03-16T22:34:18.258Z,97314.88
2019-03-16T22:36:50.403Z,97312.14
2019-03-16T22:39:22.680Z,97312.14
2019-03-16T22:41:54.981Z,97305.11
2019-03-16T22:44:27.132Z,97303.43
2019-03-16T22:46:59.141Z,97299.30
2019-03-16T22:49:31.450Z,97298.55
2019-03-16T22:52:03.573Z,97285.34
2019-03-16T22:54:35.623Z,97276.21
2019-03-16T22:57:07.656Z,97282.63
2019-03-16T22:59:39.961Z,97283.42
2019-03-16T23:02:11.984Z,97274.58
2019-03-16T23:04:44.053Z,97280.48
2019-03-16T23:07:16.043Z,97264.03
2019-03-16T23:09:48.132Z,97268.31
2019-03-16T23:12:20.496Z,97270.84
2019-03-16T23:14:52.702Z,97265.91
2019-03-16T23:17:24.745Z,97269.73
2019-03-16T23:19:56.770Z,97263.41
2019-03-16T23:22:29.109Z,97247.83
2019-03-16T23:25:01.184Z,97251.92
2019-03-16T23:27:33.215Z,97248.87
2019-03-16T23:30:05.593Z,97246.46
2019-03-16T23:32:37.576Z,97255.70
2019-03-16T23:35:10.742Z,97238.11
2019-03-16T23:37:42.724Z,97238.61
2019-03-16T23:40:14.785Z,97229.88
2019-03-16T23:42:46.845Z,97233.67
2019-03-16T23:45:18.865Z,97223.56
2019-03-16T23:47:51.401Z,97222.53
2019-03-16T23:50:23.698Z,97219.52
2019-03-16T23:52:55.705Z,97221.36
2019-03-16T23:55:27.989Z,97214.83
2019-03-16T23:57:59.961Z,97213.99
